sensor_id;sensor_type;location;lat;lon;timestamp;pressure;altitude;pressure_sealevel;temperature;humidity
24486;BME280;13449;49.374;8.584;2022-08-07T00:00:13;101165.03;;;20.47;35.77
24486;BME280;13449;49.374;8.584;2022-08-07T00:02:39;101167.44;;;20.43;35.86
24486;BME280;13449;49.374;8.584;2022-08-07T00:05:10;101166.81;;;20.41;35.89
24486;BME280;13449;49.374;8.584;2022-08-07T00:07:37;101154.88;;;20.41;35.94
24486;BME280;13449;49.374;8.584;2022-08-07T00:10:07;101157.66;;;20.41;35.74
24486;BME280;13449;49.374;8.584;2022-08-07T00:12:53;101163.81;;;20.43;35.62
24486;BME280;13449;49.374;8.584;2022-08-07T00:15:26;101160.78;;;20.44;35.61
24486;BME280;13449;49.374;8.584;2022-08-07T00:18:15;101161.91;;;20.43;35.70
24486;BME280;13449;49.374;8.584;2022-08-07T00:20:45;101150.41;;;20.40;36.01
24486;BME280;13449;49.374;8.584;2022-08-07T00:23:13;101153.53;;;20.32;35.85
24486;BME280;13449;49.374;8.584;2022-08-07T00:25:42;101146.88;;;20.33;36.14
24486;BME280;13449;49.374;8.584;2022-08-07T00:28:28;101148.44;;;20.29;36.12
24486;BME280;13449;49.374;8.584;2022-08-07T00:31:07;101139.47;;;20.26;36.28
24486;BME280;13449;49.374;8.584;2022-08-07T00:33:41;101154.41;;;20.25;36.29
24486;BME280;13449;49.374;8.584;2022-08-07T00:36:12;101154.03;;;20.22;36.38
24486;BME280;13449;49.374;8.584;2022-08-07T00:38:39;101155.19;;;20.14;36.49
24486;BME280;13449;49.374;8.584;2022-08-07T00:41:06;101154.81;;;20.11;36.56
24486;BME280;13449;49.374;8.584;2022-08-07T00:43:40;101146.81;;;20.03;37.15
24486;BME280;13449;49.374;8.584;2022-08-07T00:46:26;101145.59;;;19.99;37.19
24486;BME280;13449;49.374;8.584;2022-08-07T00:48:58;101139.22;;;19.98;37.03
24486;BME280;13449;49.374;8.584;2022-08-07T00:51:28;101139.16;;;19.87;37.70
24486;BME280;13449;49.374;8.584;2022-08-07T00:54:17;101133.06;;;19.78;37.95
24486;BME280;13449;49.374;8.584;2022-08-07T00:56:48;101131.25;;;19.72;38.33
24486;BME280;13449;49.374;8.584;2022-08-07T00:59:16;101128.84;;;19.75;37.99
24486;BME280;13449;49.374;8.584;2022-08-07T01:01:45;101130.53;;;19.76;37.69
24486;BME280;13449;49.374;8.584;2022-08-07T01:04:23;101129.75;;;19.69;37.76
24486;BME280;13449;49.374;8.584;2022-08-07T01:06:58;101130.22;;;19.66;37.87
24486;BME280;13449;49.374;8.584;2022-08-07T01:09:35;101133.00;;;19.66;38.03
24486;BME280;13449;49.374;8.584;2022-08-07T01:12:24;101135.53;;;19.68;38.13
24486;BME280;13449;49.374;8.584;2022-08-07T01:14:56;101120.59;;;19.69;38.13
24486;BME280;13449;49.374;8.584;2022-08-07T01:17:29;101130.75;;;19.57;38.63
24486;BME280;13449;49.374;8.584;2022-08-07T01:20:01;101144.59;;;19.57;38.49
24486;BME280;13449;49.374;8.584;2022-08-07T01:22:29;101134.69;;;19.49;39.39
24486;BME280;13449;49.374;8.584;2022-08-07T01:24:57;101125.84;;;19.34;39.70
24486;BME280;13449;49.374;8.584;2022-08-07T01:27:23;101125.00;;;19.34;40.52
24486;BME280;13449;49.374;8.584;2022-08-07T01:30:00;101127.22;;;19.00;41.17
24486;BME280;13449;49.374;8.584;2022-08-07T01:32:29;101131.06;;;18.74;41.46
24486;BME280;13449;49.374;8.584;2022-08-07T01:34:56;101124.69;;;18.67;42.93
24486;BME280;13449;49.374;8.584;2022-08-07T01:37:23;101122.66;;;18.56;43.11
24486;BME280;13449;49.374;8.584;2022-08-07T01:39:57;101122.31;;;18.40;43.24
24486;BME280;13449;49.374;8.584;2022-08-07T01:42:27;101122.06;;;18.10;43.23
24486;BME280;13449;49.374;8.584;2022-08-07T01:45:16;101126.09;;;18.07;44.11
24486;BME280;13449;49.374;8.584;2022-08-07T01:47:48;101130.13;;;18.05;43.53
24486;BME280;13449;49.374;8.584;2022-08-07T01:50:36;101124.69;;;17.92;43.72
24486;BME280;13449;49.374;8.584;2022-08-07T01:53:09;101122.00;;;17.72;44.92
24486;BME280;13449;49.374;8.584;2022-08-07T01:55:49;101127.53;;;17.65;44.42
24486;BME280;13449;49.374;8.584;2022-08-07T01:58:19;101115.81;;;17.70;44.56
24486;BME280;13449;49.374;8.584;2022-08-07T02:00:58;101120.09;;;17.66;45.16
24486;BME280;13449;49.374;8.584;2022-08-07T02:03:41;101128.81;;;17.50;45.89
24486;BME280;13449;49.374;8.584;2022-08-07T02:06:17;101127.97;;;17.49;45.02
24486;BME280;13449;49.374;8.584;2022-08-07T02:08:59;101118.00;;;17.42;45.65
24486;BME280;13449;49.374;8.584;2022-08-07T02:11:30;101115.88;;;17.44;45.30
24486;BME280;13449;49.374;8.584;2022-08-07T02:14:23;101112.94;;;17.38;47.52
24486;BME280;13449;49.374;8.584;2022-08-07T02:17:13;101112.94;;;17.25;46.51
24486;BME280;13449;49.374;8.584;2022-08-07T02:19:53;101115.69;;;17.38;45.28
24486;BME280;13449;49.374;8.584;2022-08-07T02:22:35;101126.06;;;17.50;44.23
24486;BME280;13449;49.374;8.584;2022-08-07T02:25:10;101122.19;;;17.70;43.76
24486;BME280;13449;49.374;8.584;2022-08-07T02:27:44;101121.34;;;17.76;44.66
24486;BME280;13449;49.374;8.584;2022-08-07T02:30:18;101126.84;;;17.83;43.16
24486;BME280;13449;49.374;8.584;2022-08-07T02:32:48;101126.75;;;17.96;43.20
24486;BME280;13449;49.374;8.584;2022-08-07T02:35:33;101111.88;;;18.04;43.61
24486;BME280;13449;49.374;8.584;2022-08-07T02:38:25;101115.25;;;18.12;42.64
24486;BME280;13449;49.374;8.584;2022-08-07T02:40:57;101115.41;;;18.24;42.68
24486;BME280;13449;49.374;8.584;2022-08-07T02:43:29;101119.38;;;18.34;42.33
24486;BME280;13449;49.374;8.584;2022-08-07T02:45:57;101116.13;;;18.44;41.99
24486;BME280;13449;49.374;8.584;2022-08-07T02:48:27;101107.38;;;18.54;42.37
24486;BME280;13449;49.374;8.584;2022-08-07T02:50:54;101114.34;;;18.63;41.65
24486;BME280;13449;49.374;8.584;2022-08-07T02:53:32;101111.34;;;18.64;42.02
24486;BME280;13449;49.374;8.584;2022-08-07T02:56:06;101113.25;;;18.64;42.10
24486;BME280;13449;49.374;8.584;2022-08-07T02:58:49;101110.00;;;18.73;41.85
24486;BME280;13449;49.374;8.584;2022-08-07T03:01:23;101109.94;;;18.80;42.30
24486;BME280;13449;49.374;8.584;2022-08-07T03:04:06;101108.25;;;18.79;41.97
24486;BME280;13449;49.374;8.584;2022-08-07T03:06:39;101113.16;;;18.77;41.50
24486;BME280;13449;49.374;8.584;2022-08-07T03:09:10;101101.31;;;18.95;41.83
24486;BME280;13449;49.374;8.584;2022-08-07T03:11:37;101097.72;;;19.19;41.47
24486;BME280;13449;49.374;8.584;2022-08-07T03:14:23;101104.38;;;19.11;41.42
24486;BME280;13449;49.374;8.584;2022-08-07T03:17:01;101108.03;;;19.05;41.45
24486;BME280;13449;49.374;8.584;2022-08-07T03:19:30;101100.81;;;19.04;41.45
24486;BME280;13449;49.374;8.584;2022-08-07T03:22:04;101102.50;;;19.05;41.28
24486;BME280;13449;49.374;8.584;2022-08-07T03:24:33;101110.34;;;19.08;41.13
24486;BME280;13449;49.374;8.584;2022-08-07T03:27:05;101103.34;;;19.06;41.03
24486;BME280;13449;49.374;8.584;2022-08-07T03:29:40;101103.53;;;19.11;41.34
24486;BME280;13449;49.374;8.584;2022-08-07T03:32:16;101098.84;;;19.11;41.67
24486;BME280;13449;49.374;8.584;2022-08-07T03:34:47;101100.97;;;19.09;41.69
24486;BME280;13449;49.374;8.584;2022-08-07T03:37:35;101105.25;;;19.05;41.74
24486;BME280;13449;49.374;8.584;2022-08-07T03:40:20;101086.75;;;18.50;44.20
24486;BME280;13449;49.374;8.584;2022-08-07T03:42:55;101089.22;;;18.33;45.03
24486;BME280;13449;49.374;8.584;2022-08-07T03:45:24;101086.28;;;18.28;45.90
24486;BME280;13449;49.374;8.584;2022-08-07T03:47:57;101081.06;;;18.13;47.02
24486;BME280;13449;49.374;8.584;2022-08-07T03:50:24;101084.03;;;17.67;47.91
24486;BME280;13449;49.374;8.584;2022-08-07T03:52:56;101085.34;;;17.38;48.77
24486;BME280;13449;49.374;8.584;2022-08-07T03:55:25;101086.69;;;17.16;49.00
24486;BME280;13449;49.374;8.584;2022-08-07T03:58:12;101084.13;;;17.08;49.53
24486;BME280;13449;49.374;8.584;2022-08-07T04:00:59;101087.28;;;17.25;47.71
24486;BME280;13449;49.374;8.584;2022-08-07T04:03:32;101089.84;;;17.20;49.33
24486;BME280;13449;49.374;8.584;2022-08-07T04:06:15;101095.16;;;17.15;49.63
24486;BME280;13449;49.374;8.584;2022-08-07T04:09:02;101093.47;;;16.81;50.44
24486;BME280;13449;49.374;8.584;2022-08-07T04:11:32;101089.00;;;16.80;50.91
24486;BME280;13449;49.374;8.584;2022-08-07T04:14:19;101092.41;;;16.69;51.65
24486;BME280;13449;49.374;8.584;2022-08-07T04:17:07;101091.28;;;16.50;51.76
24486;BME280;13449;49.374;8.584;2022-08-07T04:19:50;101092.56;;;16.34;52.47
24486;BME280;13449;49.374;8.584;2022-08-07T04:22:22;101083.41;;;16.27;53.09
24486;BME280;13449;49.374;8.584;2022-08-07T04:24:56;101091.66;;;16.08;54.53
24486;BME280;13449;49.374;8.584;2022-08-07T04:27:24;101090.19;;;16.12;53.55
24486;BME280;13449;49.374;8.584;2022-08-07T04:29:52;101096.06;;;16.09;54.55
24486;BME280;13449;49.374;8.584;2022-08-07T04:32:29;101093.03;;;15.84;55.14
24486;BME280;13449;49.374;8.584;2022-08-07T04:35:02;101091.47;;;15.68;56.39
24486;BME280;13449;49.374;8.584;2022-08-07T04:37:32;101098.25;;;15.66;56.25
24486;BME280;13449;49.374;8.584;2022-08-07T04:40:21;101105.03;;;15.70;57.01
24486;BME280;13449;49.374;8.584;2022-08-07T04:42:55;101112.78;;;15.60;56.52
24486;BME280;13449;49.374;8.584;2022-08-07T04:45:48;101121.13;;;15.73;56.13
24486;BME280;13449;49.374;8.584;2022-08-07T04:54:26;101133.19;;;15.78;56.76
24486;BME280;13449;49.374;8.584;2022-08-07T04:59:56;101155.00;;;15.80;55.56
24486;BME280;13449;49.374;8.584;2022-08-07T05:05:31;101156.47;;;15.82;56.93
24486;BME280;13449;49.374;8.584;2022-08-07T05:08:47;101151.19;;;15.81;57.31
24486;BME280;13449;49.374;8.584;2022-08-07T05:11:33;101145.31;;;15.90;57.82
24486;BME280;13449;49.374;8.584;2022-08-07T05:17:18;101163.13;;;16.01;57.05
24486;BME280;13449;49.374;8.584;2022-08-07T05:20:07;101164.84;;;16.02;57.13
24486;BME280;13449;49.374;8.584;2022-08-07T05:22:38;101171.88;;;16.11;56.25
24486;BME280;13449;49.374;8.584;2022-08-07T05:25:09;101183.94;;;16.17;55.19
24486;BME280;13449;49.374;8.584;2022-08-07T05:28:02;101199.50;;;16.37;55.44
24486;BME280;13449;49.374;8.584;2022-08-07T05:30:50;101210.13;;;16.54;54.52
24486;BME280;13449;49.374;8.584;2022-08-07T05:33:21;101196.00;;;16.70;54.75
24486;BME280;13449;49.374;8.584;2022-08-07T05:35:52;101235.00;;;16.80;52.13
24486;BME280;13449;49.374;8.584;2022-08-07T05:38:21;101227.00;;;16.98;53.25
24486;BME280;13449;49.374;8.584;2022-08-07T05:41:10;101224.88;;;17.07;51.79
24486;BME280;13449;49.374;8.584;2022-08-07T05:43:47;101238.47;;;17.21;51.09
24486;BME280;13449;49.374;8.584;2022-08-07T05:46:36;101192.03;;;17.45;55.17
24486;BME280;13449;49.374;8.584;2022-08-07T05:49:07;101255.00;;;17.48;50.31
24486;BME280;13449;49.374;8.584;2022-08-07T05:51:40;101236.78;;;17.66;50.78
24486;BME280;13449;49.374;8.584;2022-08-07T05:54:08;101260.97;;;17.77;49.89
24486;BME280;13449;49.374;8.584;2022-08-07T05:56:58;101213.16;;;17.97;52.78
24486;BME280;13449;49.374;8.584;2022-08-07T05:59:28;101252.66;;;18.10;49.44
24486;BME280;13449;49.374;8.584;2022-08-07T06:02:18;101256.41;;;18.29;50.15
24486;BME280;13449;49.374;8.584;2022-08-07T06:04:58;101266.53;;;18.42;48.96
24486;BME280;13449;49.374;8.584;2022-08-07T06:07:28;101251.44;;;18.57;49.61
24486;BME280;13449;49.374;8.584;2022-08-07T06:10:16;101268.38;;;18.74;47.92
24486;BME280;13449;49.374;8.584;2022-08-07T06:12:44;101253.00;;;18.85;48.44
24486;BME280;13449;49.374;8.584;2022-08-07T06:15:15;101265.72;;;18.92;46.71
24486;BME280;13449;49.374;8.584;2022-08-07T06:17:46;101266.13;;;18.96;46.55
24486;BME280;13449;49.374;8.584;2022-08-07T06:20:26;101247.88;;;19.19;46.77
24486;BME280;13449;49.374;8.584;2022-08-07T06:23:12;101250.47;;;19.39;47.12
24486;BME280;13449;49.374;8.584;2022-08-07T06:26:00;101253.56;;;19.56;47.83
24486;BME280;13449;49.374;8.584;2022-08-07T06:28:27;101243.59;;;19.73;47.43
24486;BME280;13449;49.374;8.584;2022-08-07T06:30:54;101256.03;;;19.89;46.10
24486;BME280;13449;49.374;8.584;2022-08-07T06:33:23;101249.25;;;20.03;46.62
24486;BME280;13449;49.374;8.584;2022-08-07T06:35:50;101248.13;;;20.10;44.91
24486;BME280;13449;49.374;8.584;2022-08-07T06:38:39;101248.94;;;20.36;44.33
24486;BME280;13449;49.374;8.584;2022-08-07T06:41:39;101252.09;;;20.39;43.96
24486;BME280;13449;49.374;8.584;2022-08-07T06:44:27;101248.75;;;20.49;43.85
24486;BME280;13449;49.374;8.584;2022-08-07T06:46:59;101226.09;;;20.70;44.81
24486;BME280;13449;49.374;8.584;2022-08-07T06:49:38;101239.44;;;20.61;43.44
24486;BME280;13449;49.374;8.584;2022-08-07T06:52:26;101235.03;;;20.72;43.60
24486;BME280;13449;49.374;8.584;2022-08-07T06:55:12;101205.47;;;21.07;45.38
24486;BME280;13449;49.374;8.584;2022-08-07T06:58:02;101238.72;;;20.96;43.61
24486;BME280;13449;49.374;8.584;2022-08-07T07:00:35;101232.31;;;21.13;42.63
24486;BME280;13449;49.374;8.584;2022-08-07T07:03:04;101224.47;;;21.22;44.38
24486;BME280;13449;49.374;8.584;2022-08-07T07:05:39;101219.94;;;21.39;44.38
24486;BME280;13449;49.374;8.584;2022-08-07T07:08:27;101227.56;;;21.55;42.64
24486;BME280;13449;49.374;8.584;2022-08-07T07:10:56;101220.34;;;21.78;44.29
24486;BME280;13449;49.374;8.584;2022-08-07T07:13:35;101222.84;;;21.79;42.35
24486;BME280;13449;49.374;8.584;2022-08-07T07:16:24;101222.28;;;22.00;42.98
24486;BME280;13449;49.374;8.584;2022-08-07T07:18:58;101208.75;;;22.15;44.73
24486;BME280;13449;49.374;8.584;2022-08-07T07:21:39;101235.56;;;22.10;40.84
24486;BME280;13449;49.374;8.584;2022-08-07T07:24:27;101197.69;;;22.32;44.64
24486;BME280;13449;49.374;8.584;2022-08-07T07:26:57;101216.66;;;22.24;41.69
24486;BME280;13449;49.374;8.584;2022-08-07T07:29:33;101219.53;;;22.40;42.38
24486;BME280;13449;49.374;8.584;2022-08-07T07:32:22;101197.09;;;22.70;45.13
24486;BME280;13449;49.374;8.584;2022-08-07T07:34:54;101198.94;;;22.93;42.48
24486;BME280;13449;49.374;8.584;2022-08-07T07:37:26;101200.56;;;23.05;42.28
24486;BME280;13449;49.374;8.584;2022-08-07T07:40:20;101199.94;;;23.03;41.22
24486;BME280;13449;49.374;8.584;2022-08-07T07:42:53;101199.09;;;23.03;41.59
24486;BME280;13449;49.374;8.584;2022-08-07T07:45:26;101196.88;;;23.17;41.18
24486;BME280;13449;49.374;8.584;2022-08-07T07:48:18;101202.09;;;23.30;42.12
24486;BME280;13449;49.374;8.584;2022-08-07T07:51:02;101195.97;;;23.44;41.60
24486;BME280;13449;49.374;8.584;2022-08-07T07:53:39;101203.22;;;23.45;40.90
24486;BME280;13449;49.374;8.584;2022-08-07T07:56:18;101190.41;;;23.61;41.66
24486;BME280;13449;49.374;8.584;2022-08-07T07:58:57;101186.66;;;23.55;42.03
24486;BME280;13449;49.374;8.584;2022-08-07T08:01:25;101177.16;;;23.90;42.81
24486;BME280;13449;49.374;8.584;2022-08-07T08:04:14;101181.94;;;23.73;40.71
24486;BME280;13449;49.374;8.584;2022-08-07T08:06:43;101175.34;;;24.00;44.19
24486;BME280;13449;49.374;8.584;2022-08-07T08:09:21;101179.22;;;23.99;42.64
24486;BME280;13449;49.374;8.584;2022-08-07T08:11:52;101164.56;;;24.26;43.38
24486;BME280;13449;49.374;8.584;2022-08-07T08:14:38;101182.94;;;23.83;40.96
24486;BME280;13449;49.374;8.584;2022-08-07T08:17:19;101174.19;;;23.96;41.94
24486;BME280;13449;49.374;8.584;2022-08-07T08:20:08;101185.03;;;24.15;41.55
24486;BME280;13449;49.374;8.584;2022-08-07T08:22:50;101165.63;;;24.20;41.85
24486;BME280;13449;49.374;8.584;2022-08-07T08:25:38;101176.63;;;24.53;41.58
24486;BME280;13449;49.374;8.584;2022-08-07T08:28:31;101194.47;;;24.30;40.36
24486;BME280;13449;49.374;8.584;2022-08-07T08:31:08;101168.84;;;24.55;41.37
24486;BME280;13449;49.374;8.584;2022-08-07T08:33:46;101182.47;;;24.78;39.75
24486;BME280;13449;49.374;8.584;2022-08-07T08:36:16;101175.47;;;24.76;40.82
24486;BME280;13449;49.374;8.584;2022-08-07T08:38:55;101168.22;;;25.01;41.88
24486;BME280;13449;49.374;8.584;2022-08-07T08:41:33;101178.41;;;24.86;39.64
24486;BME280;13449;49.374;8.584;2022-08-07T08:47:26;101169.59;;;24.99;39.90
24486;BME280;13449;49.374;8.584;2022-08-07T08:55:39;101156.44;;;25.58;39.75
24486;BME280;13449;49.374;8.584;2022-08-07T09:04:52;101144.97;;;25.55;38.80
24486;BME280;13449;49.374;8.584;2022-08-07T09:07:43;101122.31;;;25.98;41.00
24486;BME280;13449;49.374;8.584;2022-08-07T09:16:26;101140.81;;;25.62;38.38
24486;BME280;13449;49.374;8.584;2022-08-07T09:19:16;101142.91;;;25.82;37.71
24486;BME280;13449;49.374;8.584;2022-08-07T09:22:20;101135.81;;;26.16;38.82
24486;BME280;13449;49.374;8.584;2022-08-07T09:28:10;101119.44;;;25.88;39.15
24486;BME280;13449;49.374;8.584;2022-08-07T09:31:10;101129.09;;;26.17;36.10
24486;BME280;13449;49.374;8.584;2022-08-07T09:40:08;101132.69;;;26.08;32.95
24486;BME280;13449;49.374;8.584;2022-08-07T09:45:11;101124.94;;;26.25;32.98
24486;BME280;13449;49.374;8.584;2022-08-07T09:48:10;101105.50;;;26.75;34.05
24486;BME280;13449;49.374;8.584;2022-08-07T09:50:53;101122.00;;;26.62;32.59
24486;BME280;13449;49.374;8.584;2022-08-07T09:53:25;101105.50;;;26.75;33.21
24486;BME280;13449;49.374;8.584;2022-08-07T09:59:18;101102.69;;;26.60;32.35
24486;BME280;13449;49.374;8.584;2022-08-07T10:06:05;101083.69;;;26.92;32.69
24486;BME280;13449;49.374;8.584;2022-08-07T10:08:54;101085.38;;;27.14;31.80
24486;BME280;13449;49.374;8.584;2022-08-07T10:20:41;101083.13;;;27.11;30.44
24486;BME280;13449;49.374;8.584;2022-08-07T10:41:26;101053.38;;;27.45;29.08
24486;BME280;13449;49.374;8.584;2022-08-07T10:44:25;101046.66;;;27.41;28.77
24486;BME280;13449;49.374;8.584;2022-08-07T10:47:36;101039.72;;;27.28;28.75
24486;BME280;13449;49.374;8.584;2022-08-07T10:50:23;101047.81;;;27.50;29.18
24486;BME280;13449;49.374;8.584;2022-08-07T10:55:44;101051.16;;;27.52;29.98
24486;BME280;13449;49.374;8.584;2022-08-07T11:04:39;101040.81;;;27.48;28.50
24486;BME280;13449;49.374;8.584;2022-08-07T11:07:43;101047.22;;;27.58;26.80
24486;BME280;13449;49.374;8.584;2022-08-07T11:13:46;101037.13;;;27.52;26.22
24486;BME280;13449;49.374;8.584;2022-08-07T11:16:44;101026.13;;;27.76;26.84
24486;BME280;13449;49.374;8.584;2022-08-07T11:25:08;101017.72;;;27.71;27.99
24486;BME280;13449;49.374;8.584;2022-08-07T11:30:40;101013.53;;;27.68;28.98
24486;BME280;13449;49.374;8.584;2022-08-07T11:33:20;101021.44;;;27.56;27.00
24486;BME280;13449;49.374;8.584;2022-08-07T11:39:31;101009.13;;;27.37;26.48
24486;BME280;13449;49.374;8.584;2022-08-07T11:51:21;100998.69;;;27.73;26.38
24486;BME280;13449;49.374;8.584;2022-08-07T11:59:52;100986.47;;;28.08;27.71
24486;BME280;13449;49.374;8.584;2022-08-07T12:06:24;100984.59;;;28.32;26.44
24486;BME280;13449;49.374;8.584;2022-08-07T12:09:11;100981.13;;;28.11;25.88
24486;BME280;13449;49.374;8.584;2022-08-07T12:12:03;100983.41;;;27.99;25.62
24486;BME280;13449;49.374;8.584;2022-08-07T12:17:36;100984.19;;;28.15;26.43
24486;BME280;13449;49.374;8.584;2022-08-07T12:20:21;100982.31;;;27.90;25.68
24486;BME280;13449;49.374;8.584;2022-08-07T12:23:10;100966.69;;;28.28;28.57
24486;BME280;13449;49.374;8.584;2022-08-07T12:25:53;100963.50;;;28.40;26.94
24486;BME280;13449;49.374;8.584;2022-08-07T12:29:11;100975.22;;;28.52;27.25
24486;BME280;13449;49.374;8.584;2022-08-07T12:31:58;100975.41;;;28.26;24.02
24486;BME280;13449;49.374;8.584;2022-08-07T12:34:35;100972.34;;;28.23;24.79
24486;BME280;13449;49.374;8.584;2022-08-07T12:37:06;100956.81;;;27.92;24.58
24486;BME280;13449;49.374;8.584;2022-08-07T12:39:55;100946.53;;;28.21;26.62
24486;BME280;13449;49.374;8.584;2022-08-07T12:42:26;100948.63;;;28.39;26.98
24486;BME280;13449;49.374;8.584;2022-08-07T12:45:01;100958.75;;;27.96;24.32
24486;BME280;13449;49.374;8.584;2022-08-07T12:47:39;100965.06;;;28.17;24.20
24486;BME280;13449;49.374;8.584;2022-08-07T12:53:13;100956.31;;;28.28;24.32
24486;BME280;13449;49.374;8.584;2022-08-07T12:55:57;100951.78;;;28.32;25.02
24486;BME280;13449;49.374;8.584;2022-08-07T12:58:34;100939.31;;;28.49;25.66
24486;BME280;13449;49.374;8.584;2022-08-07T13:15:38;100921.16;;;28.36;25.16
24486;BME280;13449;49.374;8.584;2022-08-07T13:18:26;100921.00;;;28.56;24.43
24486;BME280;13449;49.374;8.584;2022-08-07T13:21:16;100921.00;;;28.56;24.08
24486;BME280;13449;49.374;8.584;2022-08-07T13:24:26;100922.63;;;28.62;25.17
24486;BME280;13449;49.374;8.584;2022-08-07T13:30:10;100906.97;;;28.56;27.36
24486;BME280;13449;49.374;8.584;2022-08-07T13:33:10;100919.22;;;28.37;23.83
24486;BME280;13449;49.374;8.584;2022-08-07T13:36:38;100911.66;;;28.32;24.39
24486;BME280;13449;49.374;8.584;2022-08-07T13:41:42;100908.88;;;28.61;23.46
24486;BME280;13449;49.374;8.584;2022-08-07T13:44:20;100903.59;;;28.54;25.21
24486;BME280;13449;49.374;8.584;2022-08-07T13:46:55;100899.47;;;28.47;23.61
24486;BME280;13449;49.374;8.584;2022-08-07T13:49:31;100899.59;;;28.31;24.52
24486;BME280;13449;49.374;8.584;2022-08-07T13:52:21;100895.19;;;28.25;24.40
24486;BME280;13449;49.374;8.584;2022-08-07T13:55:07;100898.50;;;28.27;24.98
24486;BME280;13449;49.374;8.584;2022-08-07T13:57:38;100886.16;;;28.28;24.97
24486;BME280;13449;49.374;8.584;2022-08-07T14:00:36;100883.94;;;28.25;24.52
24486;BME280;13449;49.374;8.584;2022-08-07T14:03:21;100881.88;;;28.36;24.94
24486;BME280;13449;49.374;8.584;2022-08-07T14:06:10;100882.44;;;28.38;24.20
24486;BME280;13449;49.374;8.584;2022-08-07T14:08:45;100880.69;;;28.13;23.30
24486;BME280;13449;49.374;8.584;2022-08-07T14:11:21;100869.72;;;28.17;23.88
24486;BME280;13449;49.374;8.584;2022-08-07T14:13:53;100865.94;;;28.31;24.52
24486;BME280;13449;49.374;8.584;2022-08-07T14:16:29;100870.16;;;28.29;24.80
24486;BME280;13449;49.374;8.584;2022-08-07T14:19:00;100871.97;;;28.15;24.03
24486;BME280;13449;49.374;8.584;2022-08-07T14:21:40;100867.38;;;28.29;23.99
24486;BME280;13449;49.374;8.584;2022-08-07T14:24:34;100869.72;;;28.17;23.82
24486;BME280;13449;49.374;8.584;2022-08-07T14:27:12;100862.38;;;28.21;23.45
24486;BME280;13449;49.374;8.584;2022-08-07T14:30:03;100859.69;;;28.11;23.94
24486;BME280;13449;49.374;8.584;2022-08-07T14:32:50;100850.06;;;28.17;25.13
24486;BME280;13449;49.374;8.584;2022-08-07T14:35:27;100855.75;;;28.07;24.15
24486;BME280;13449;49.374;8.584;2022-08-07T14:38:14;100849.56;;;28.10;25.53
24486;BME280;13449;49.374;8.584;2022-08-07T14:40:56;100839.53;;;27.99;25.70
24486;BME280;13449;49.374;8.584;2022-08-07T14:43:27;100847.38;;;28.02;23.79
24486;BME280;13449;49.374;8.584;2022-08-07T14:46:17;100843.44;;;28.08;27.30
24486;BME280;13449;49.374;8.584;2022-08-07T14:48:55;100839.03;;;27.92;25.54
24486;BME280;13449;49.374;8.584;2022-08-07T14:51:28;100839.63;;;27.89;24.96
24486;BME280;13449;49.374;8.584;2022-08-07T14:54:17;100843.91;;;27.81;24.38
24486;BME280;13449;49.374;8.584;2022-08-07T14:57:02;100836.38;;;27.71;24.20
24486;BME280;13449;49.374;8.584;2022-08-07T14:59:35;100829.88;;;27.81;24.87
24486;BME280;13449;49.374;8.584;2022-08-07T15:02:30;100827.06;;;27.81;25.90
24486;BME280;13449;49.374;8.584;2022-08-07T15:05:01;100829.00;;;27.85;25.65
24486;BME280;13449;49.374;8.584;2022-08-07T15:07:57;100834.63;;;27.85;24.88
24486;BME280;13449;49.374;8.584;2022-08-07T15:10:28;100826.22;;;27.85;24.94
24486;BME280;13449;49.374;8.584;2022-08-07T15:13:25;100823.22;;;27.72;25.51
24486;BME280;13449;49.374;8.584;2022-08-07T15:16:05;100825.13;;;27.81;26.23
24486;BME280;13449;49.374;8.584;2022-08-07T15:19:00;100817.84;;;27.75;25.44
24486;BME280;13449;49.374;8.584;2022-08-07T15:21:30;100808.09;;;27.68;26.18
24486;BME280;13449;49.374;8.584;2022-08-07T15:24:35;100805.00;;;27.74;25.21
24486;BME280;13449;49.374;8.584;2022-08-07T15:27:25;100809.88;;;27.59;25.65
24486;BME280;13449;49.374;8.584;2022-08-07T15:30:07;100812.09;;;27.62;25.75
24486;BME280;13449;49.374;8.584;2022-08-07T15:32:44;100805.03;;;27.64;25.89
24486;BME280;13449;49.374;8.584;2022-08-07T15:35:34;100809.88;;;27.59;25.33
24486;BME280;13449;49.374;8.584;2022-08-07T15:38:27;100805.91;;;27.60;25.78
24486;BME280;13449;49.374;8.584;2022-08-07T15:41:24;100803.44;;;27.53;25.71
24486;BME280;13449;49.374;8.584;2022-08-07T15:44:12;100800.66;;;27.53;26.50
24486;BME280;13449;49.374;8.584;2022-08-07T15:47:03;100790.00;;;27.55;25.74
24486;BME280;13449;49.374;8.584;2022-08-07T15:49:44;100798.44;;;27.50;25.36
24486;BME280;13449;49.374;8.584;2022-08-07T15:52:35;100806.25;;;27.53;25.75
24486;BME280;13449;49.374;8.584;2022-08-07T15:55:06;100800.38;;;27.55;25.13
24486;BME280;13449;49.374;8.584;2022-08-07T15:57:46;100795.25;;;27.62;25.55
24486;BME280;13449;49.374;8.584;2022-08-07T16:00:18;100792.16;;;27.63;25.37
24486;BME280;13449;49.374;8.584;2022-08-07T16:03:02;100788.28;;;27.59;25.22
24486;BME280;13449;49.374;8.584;2022-08-07T16:05:48;100787.19;;;27.55;25.07
24486;BME280;13449;49.374;8.584;2022-08-07T16:08:23;100786.38;;;27.50;24.70
24486;BME280;13449;49.374;8.584;2022-08-07T16:11:05;100792.53;;;27.52;25.02
24486;BME280;13449;49.374;8.584;2022-08-07T16:14:17;100793.06;;;27.54;24.87
24486;BME280;13449;49.374;8.584;2022-08-07T16:17:38;100780.19;;;27.53;24.50
24486;BME280;13449;49.374;8.584;2022-08-07T16:25:29;100774.91;;;27.51;24.95
24486;BME280;13449;49.374;8.584;2022-08-07T16:37:30;100779.09;;;27.49;24.76
24486;BME280;13449;49.374;8.584;2022-08-07T16:47:04;100775.81;;;27.36;24.61
24486;BME280;13449;49.374;8.584;2022-08-07T16:56:11;100787.00;;;27.36;24.11